Weather observations for the past three days for
Manitowoc, Manitowoc County Airport
Metric (Imperial)
Date Time (cdt) Wind (kph) Vis. (km) Weather Sky Cond. Temperature (ºC) Relative Humidity Wind Chill (°C) Heat Index (°C) Pressure Precipitation (cm)
Air Dwpt 6 hour altimeter (cm) sea level (mb) 1 hr 3 hr 6 hr
Max. Min.
10 06:56 W 15 16.09 Fair CLR 5.6 0 5.6 1.1 68% 3 76.3 1017.6
10 05:56 W 11 16.09 Fair CLR 3.3 -0.6 76% 1 76.25 1016.9
10 04:56 W 7 16.09 Fair CLR 2.8 0 82% 1 76.2 1016.1
10 03:56 W 7 16.09 Fair CLR 1.7 0 89% -0 76.15 1015.4
10 02:56 Calm 16.09 Fair CLR 1.1 0.6 97% 76.1 1014.8
10 01:56 Calm 16.09 Fair CLR 1.7 0 89% 76.07 1014.5
10 00:56 Calm 16.09 Fair CLR 2.2 0.6 14.4 2.2 89% 76.05 1014.0
09 23:56 Calm 16.09 Fair CLR 3.9 0 76% 76 1013.3
09 22:56 Calm 16.09 Mostly Cloudy BKN090 6.1 0 65% 75.95 1013.0
09 21:56 NE 7 16.09 Fair CLR 6.7 0 63% 6 75.92 1012.7
09 20:56 NE 13 16.09 A Few Clouds FEW100 8.3 0 56% 6 75.79 1010.9
09 19:56 N 15 16.09 Mostly Cloudy BKN100 13.3 -3.9 30% 75.64 1008.5
09 18:56 NW 20 16.09 A Few Clouds FEW090 14.4 -5 16.7 13.3 26% 75.54 1007.2
09 17:56 NW 22 G 31 16.09 A Few Clouds FEW080 15.6 -2.8 28% 75.46 1006.1
09 16:56 W 28 G 43 16.09 A Few Clouds FEW090 16.1 -2.2 29% 75.39 1005.2
09 15:56 NW 30 G 43 16.09 Fair CLR 15.6 0 35% 75.34 1004.8
09 14:56 NW 37 G 48 16.09 Fair and Breezy CLR 16.1 0.6 35% 75.29 1003.9
09 13:56 W 28 G 43 16.09 Partly Cloudy SCT049 15 4.4 49% 75.26 1003.6
09 12:56 NW 26 16.09 Mostly Cloudy BKN060 13.9 3.3 15.6 11.7 49% 75.23 1003.2
09 11:56 W 24 G 31 16.09 Partly Cloudy SCT075 13.9 1.7 44% 75.18 1002.6
09 10:56 NW 20 16.09 A Few Clouds FEW070 13.3 0.6 42% 75.16 1002.2
09 09:56 W 24 16.09 Partly Cloudy SCT075 13.3 0.6 42% 75.16 1002.0
09 08:56 W 17 16.09 Partly Cloudy FEW060 SCT070 11.7 0.6 47% 75.11 1001.6
09 07:56 W 17 16.09 Fair CLR 11.7 1.1 48% 75.03 1000.3
09 06:56 W 19 16.09 Fair CLR 11.7 2.8 12.8 5.6 55% 74.98 999.7
09 05:56 SW 17 16.09 Fair CLR 12.2 3.9 57% 74.9 998.7
09 04:56 SW 11 16.09 Fair CLR 10 5 71% 9 74.88 998.5
09 03:56 S 7 9.66 Fog/Mist CLR 5.6 5.6 100% 4 74.93 999.2
09 02:56 E 6 9.66 Fog/Mist SCT100 5.6 5.6 100% 74.98 999.9
09 01:56 E 7 16.09 Fair CLR 8.3 6.1 86% 7 75.03 1000.3
09 00:56 SE 6 16.09 Mostly Cloudy BKN110 10.6 5.6 12.2 10 71% 75.13 1001.5
08 23:56 S 13 16.09 Mostly Cloudy FEW090 BKN110 11.7 5.6 66% 75.18 1002.4
08 22:56 SW 15 16.09 Mostly Cloudy BKN100 BKN120 11.7 4.4 61% 75.23 1003.0
08 21:56 S 20 16.09 A Few Clouds FEW110 10.6 3.3 61% 75.26 1003.3
08 20:56 S 15 16.09 Mostly Cloudy BKN100 BKN120 12.2 -2.2 37% 75.29 1003.7
08 19:56 S 17 16.09 Overcast OVC100 12.2 -2.2 37% 75.29 1003.9
08 18:56 S 22 16.09 Fair CLR 12.2 -1.1 18.3 12.2 40% 75.31 1004.2
08 17:56 S 30 16.09 Fair CLR 13.3 -1.1 37% 75.34 1004.4
08 16:56 S 31 G 44 16.09 Mostly Cloudy BKN110 13.3 -1.7 36% 75.36 1004.9
08 15:56 S 28 16.09 A Few Clouds FEW095 13.3 -1.7 36% 75.39 1005.3
08 14:56 S 24 16.09 A Few Clouds FEW095 13.9 -1.1 36% 75.46 1006.2
08 13:56 W 22 16.09 Fair CLR 17.2 -3.9 24% 75.49 1006.6
08 12:56 W 19 G 33 16.09 Fair CLR 17.8 -3.3 17.8 7.2 24% 75.54 1007.4
08 11:56 SW 30 G 39 16.09 Fair CLR 16.7 -4.4 23% 75.62 1008.4
08 10:56 W 30 G 35 16.09 Fair CLR 16.1 -3.9 25% 75.67 1008.9
08 09:56 W 20 G 26 16.09 Fair CLR 15 -2.8 29% 75.69 1009.5
08 08:56 SW 17 16.09 Fair CLR 13.3 -2.2 34% 75.72 1009.5
08 07:56 SW 17 16.09 Fair CLR 10.6 -1.7 43% 75.72 1009.7
08 06:56 SW 13 16.09 Fair CLR 7.2 -1.1 7.2 2.8 56% 5 75.72 1009.8
08 05:56 SW 11 16.09 Fair CLR 5 -1.7 62% 3 75.72 1009.9
08 04:56 SW 11 16.09 Fair CLR 4.4 -1.7 65% 2 75.72 1009.9
08 03:56 SW 9 16.09 Fair CLR 3.9 -1.7 67% 2 75.74 1010.2
08 02:56 SW 11 16.09 Fair CLR 2.8 -1.7 73% 0 75.79 1010.7
08 01:56 SW 13 16.09 Fair CLR 3.3 -2.2 68% 0 75.82 1011.3
08 00:56 SW 9 16.09 Fair CLR 2.8 -2.8 6.7 2.8 67% 1 75.87 1011.8
07 23:56 Calm 16.09 Fair CLR 3.9 -2.2 65% 75.87 1012.1
07 22:56 SW 9 16.09 Fair CLR 4.4 -2.8 60% 2 75.87 1012.0
07 21:56 S 9 16.09 Fair CLR 4.4 -1.7 65% 2 75.9 1012.2
07 20:56 S 11 16.09 Fair CLR 5.6 -1.7 60% 3 75.87 1011.9
07 19:56 S 13 16.09 Fair CLR 5.6 -1.7 60% 3 75.82 1011.3
07 18:56 S 22 16.09 A Few Clouds FEW070 6.7 -1.1 11.7 6.7 58% 3 75.77 1010.9
07 17:56 S 26 16.09 Partly Cloudy SCT065 7.8 -0.6 56% 4 75.77 1010.7
07 16:56 S 26 G 37 16.09 Partly Cloudy FEW055 SCT075 SCT090 8.3 -0.6 54% 5 75.79 1010.9
07 15:56 W 22 16.09 Partly Cloudy SCT050 11.1 -1.7 41% 75.79 1010.8
07 14:56 W 17 G 28 16.09 Partly Cloudy SCT055 11.1 -2.2 40% 75.84 1011.4
07 13:56 W 19 16.09 Mostly Cloudy BKN055 10 -3.3 39% 8 75.84 1011.7
07 12:56 SW 19 16.09 A Few Clouds FEW070 10 -3.9 10 3.9 38% 8 75.87 1012.0
07 11:56 NW 13 G 30 16.09 Partly Cloudy SCT060 9.4 -3.9 39% 8 75.95 1012.9
07 10:56 NW 13 16.09 Partly Cloudy FEW050 SCT070 8.3 -4.4 41% 6 76 1013.6
07 09:56 NW 19 G 28 16.09 Mostly Cloudy SCT050 BKN080 7.8 -5 40% 5 76.02 1014.2
07 08:56 W 19 16.09 Partly Cloudy SCT065 6.7 -2.2 53% 4 76.07 1014.6
07 07:56 W 11 16.09 Overcast OVC055 5 -2.8 57% 3 76.07 1014.6
Date Time (cdt) Wind (kph) Vis. (km) Weather Sky Cond. Air Dwpt Max. Min. Relative Humidity Wind Chill (°C) Heat Index (°C) altimeter (cm) sea level (mb) 1 hr 3 hr 6 hr
6 hour
Temperature (ºC) Pressure Precipitation (cm)